LESO

Details ICAO LESO (EAS)
Name San Sebastian
Region Spain
Timezone Europe/Madrid (UTC+2.0)
Plans Departing 239
Arriving 186
Stats Elevation 16 ft / 5 m (AMSL)
Location 43.356500° -1.790630°
Runways 1
Magnetic Variation 0.192° W
Sunrise 2018-10-21 06:29:12 UTC / 2018-10-21 08:29:12 Local
Sunset 2018-10-21 17:16:43 UTC / 2018-10-21 19:16:43 Local
Advertisement - Login to hide

Runways

ID Width Length Bearing (true/mag) Surface Threshold Overrun Markings Lighting
04 148 ft / 45 m 5,760 ft / 1,756 m 38.68° / 38.87° ASPHALT 10 ft / 3 m 0 ft / 0 m PREC-APP CENTERLINE EDGE THRESHOLD REIL-OMNI
22 148 ft / 45 m 5,760 ft / 1,756 m 218.69° / 218.88° ASPHALT 0 ft / 0 m 0 ft / 0 m PREC-APP CENTERLINE EDGE THRESHOLD REIL-OMNI

Map

Weather


0- 5 10 15 20 25 30 35+ Temperature / °C

Clouds and Precipitation
Forecast for 2018-10-21 00:00 UTC. Updated 6 hours ago

Ground ~20,000 ft ~40,000 ft Winds

METAR

LESO 210300Z AUTO 16003KT 100V200 2800 BR VV001 16/15 Q1024

TAF

TAF LESO 202300Z 2100/2124 20004KT 8000 FEW020 TX21/2114Z TN14/2107Z TEMPO 2100/2108 3000 BR PROB30 TEMPO 2100/2109 BKN010 TEMPO 2112/2118 01010KT TEMPO 2121/2124 1500 BCFG

Frequencies

Ground 121.70 MHz
Approach 119.85 MHz
Tower 119.85 MHz
Warning: Do not use this data for real-world aviation or navigation. No guarantee of current accuracy is given.